Time;durP1;ratioP1;P1;durP2;ratioP2;P2;SDS_P1;SDS_P2;PMS_P1;PMS_P2;Temp;Humidity;BMP_temperature;BMP_pressure;BME280_temperature;BME280_humidity;BME280_pressure;Samples;Min_cycle;Max_cycle;Signal;HPM_P1;HPM_P2
2023/04/01 00:02:14;;;;;;;3.03;0.67;;;;;;;;;;5010799;28;20211;-35
2023/04/01 00:04:41;;;;;;;1.40;0.50;;;;;;;;;;5009084;28;20207;-33
2023/04/01 00:07:10;;;;;;;1.13;0.60;;;;;;;;;;5008288;28;20567;-35
2023/04/01 00:09:37;;;;;;;3.13;0.50;;;;;;;;;;5016823;28;20217;-36
2023/04/01 00:12:05;;;;;;;2.23;0.57;;;;;;;;;;5020480;28;20230;-36
2023/04/01 00:14:32;;;;;;;1.20;0.90;;;;;;;;;;5008021;28;20713;-35
2023/04/01 00:17:00;;;;;;;0.50;0.50;;;;;;;;;;5016664;28;20681;-33
2023/04/01 00:19:27;;;;;;;2.57;0.90;;;;;;;;;;5017349;28;20203;-35
2023/04/01 00:21:54;;;;;;;2.80;1.20;;;;;;;;;;5007213;28;20217;-35
2023/04/01 00:24:22;;;;;;;1.43;0.90;;;;;;;;;;5014662;28;20226;-36
2023/04/01 00:26:50;;;;;;;2.73;0.87;;;;;;;;;;5006096;28;20242;-34
2023/04/01 00:29:17;;;;;;;1.60;0.73;;;;;;;;;;5022024;28;20203;-33
2023/04/01 00:31:44;;;;;;;0.73;0.20;;;;;;;;;;5013987;28;20213;-35
2023/04/01 00:34:11;;;;;;;1.73;1.20;;;;;;;;;;5014365;28;20293;-36
2023/04/01 00:36:39;;;;;;;1.43;0.60;;;;;;;;;;5007424;28;20206;-36
2023/04/01 00:39:06;;;;;;;0.77;0.33;;;;;;;;;;5006765;28;20265;-35
2023/04/01 00:41:37;;;;;;;1.20;0.80;;;;;;;;;;5014958;28;20215;-35
2023/04/01 00:44:17;;;;;;;1.40;0.40;;;;;;;;;;5025978;28;20223;-36
2023/04/01 00:46:45;;;;;;;0.77;0.60;;;;;;;;;;5005711;28;20232;-33
2023/04/01 00:49:12;;;;;;;1.77;0.30;;;;;;;;;;5004702;28;20246;-36
2023/04/01 00:51:40;;;;;;;0.73;0.50;;;;;;;;;;5015297;28;20210;-33
2023/04/01 00:54:08;;;;;;;0.70;0.50;;;;;;;;;;5021775;28;20242;-36
2023/04/01 00:56:39;;;;;;;0.50;0.43;;;;;;;;;;5005912;28;20218;-33
2023/04/01 00:59:08;;;;;;;1.00;0.40;;;;;;;;;;5007616;28;20207;-35
2023/04/01 01:01:36;;;;;;;1.80;0.40;;;;;;;;;;5011641;28;20231;-34
2023/04/01 01:04:03;;;;;;;1.80;0.60;;;;;;;;;;5023758;28;20244;-33
2023/04/01 01:06:38;;;;;;;1.77;0.63;;;;;;;;;;5025945;28;20203;-35
2023/04/01 01:09:14;;;;;;;1.13;0.50;;;;;;;;;;5025521;28;20229;-37
2023/04/01 01:11:44;;;;;;;1.23;0.40;;;;;;;;;;5005319;28;20239;-33
2023/04/01 01:14:13;;;;;;;1.13;0.50;;;;;;;;;;5020438;28;20237;-33
2023/04/01 01:16:44;;;;;;;1.73;0.70;;;;;;;;;;5009897;28;20214;-34
2023/04/01 01:19:17;;;;;;;1.10;0.50;;;;;;;;;;5010488;28;20203;-35
2023/04/01 01:21:58;;;;;;;0.67;0.40;;;;;;;;;;5024640;28;20221;-33
2023/04/01 01:24:41;;;;;;;1.77;0.37;;;;;;;;;;5019197;28;20239;-33
2023/04/01 01:27:10;;;;;;;1.70;0.80;;;;;;;;;;5005079;28;20207;-33
2023/04/01 01:29:55;;;;;;;0.63;0.30;;;;;;;;;;5003727;28;20209;-35
2023/04/01 01:32:40;;;;;;;0.57;0.40;;;;;;;;;;5011802;28;20210;-33
2023/04/01 01:35:18;;;;;;;0.63;0.57;;;;;;;;;;5019950;28;20199;-35
2023/04/01 01:37:46;;;;;;;0.77;0.20;;;;;;;;;;5019798;28;20206;-34
2023/04/01 01:40:14;;;;;;;0.33;0.23;;;;;;;;;;5018882;28;20304;-35
2023/04/01 01:42:43;;;;;;;1.33;0.53;;;;;;;;;;5016843;28;20690;-36
2023/04/01 01:45:11;;;;;;;0.60;0.30;;;;;;;;;;5018454;28;20203;-34
2023/04/01 01:47:39;;;;;;;1.13;0.30;;;;;;;;;;5019061;28;20205;-33
2023/04/01 01:50:07;;;;;;;0.40;0.40;;;;;;;;;;5004366;28;20650;-34
2023/04/01 01:52:35;;;;;;;0.37;0.20;;;;;;;;;;5005723;28;20234;-33
2023/04/01 01:55:02;;;;;;;0.67;0.33;;;;;;;;;;5004251;28;20218;-35
2023/04/01 01:57:31;;;;;;;0.40;0.40;;;;;;;;;;5018810;28;20586;-36
2023/04/01 02:00:00;;;;;;;0.97;0.40;;;;;;;;;;5013770;28;20195;-35
2023/04/01 02:02:31;;;;;;;0.50;0.37;;;;;;;;;;5018792;28;20214;-35
2023/04/01 02:04:58;;;;;;;0.30;0.30;;;;;;;;;;5018986;28;20607;-36
2023/04/01 02:07:26;;;;;;;0.87;0.33;;;;;;;;;;5023936;28;20293;-35
2023/04/01 02:09:56;;;;;;;3.27;0.50;;;;;;;;;;5013021;28;20207;-35
2023/04/01 02:12:24;;;;;;;0.60;0.50;;;;;;;;;;5020315;28;20203;-34
2023/04/01 02:14:53;;;;;;;1.33;0.63;;;;;;;;;;5008759;28;20207;-35
2023/04/01 02:17:21;;;;;;;0.93;0.40;;;;;;;;;;5024970;28;20213;-35
2023/04/01 02:19:50;;;;;;;1.03;0.33;;;;;;;;;;5023818;28;20202;-32
2023/04/01 02:22:19;;;;;;;1.30;0.30;;;;;;;;;;5028758;28;20214;-33
2023/04/01 02:24:47;;;;;;;0.20;0.20;;;;;;;;;;5025536;28;20202;-35
2023/04/01 02:27:16;;;;;;;0.60;0.37;;;;;;;;;;5027219;28;20202;-35
2023/04/01 02:29:43;;;;;;;0.40;0.20;;;;;;;;;;5015265;28;20207;-36
2023/04/01 02:32:10;;;;;;;0.33;0.33;;;;;;;;;;5008280;28;20653;-33
2023/04/01 02:34:38;;;;;;;0.20;0.20;;;;;;;;;;5027264;28;20222;-35
2023/04/01 02:37:05;;;;;;;1.40;0.30;;;;;;;;;;5031139;28;20212;-32
2023/04/01 02:39:32;;;;;;;0.20;0.20;;;;;;;;;;5016263;28;20211;-33
2023/04/01 02:42:00;;;;;;;0.53;0.30;;;;;;;;;;5015167;28;20207;-33
2023/04/01 02:44:29;;;;;;;0.83;0.33;;;;;;;;;;5012662;28;20225;-36
2023/04/01 02:46:56;;;;;;;1.00;0.73;;;;;;;;;;5018058;28;20229;-34
2023/04/01 02:49:23;;;;;;;0.10;0.10;;;;;;;;;;5028077;28;20280;-33
2023/04/01 02:51:51;;;;;;;0.73;0.27;;;;;;;;;;5029635;28;20665;-35
2023/04/01 02:54:18;;;;;;;0.20;0.17;;;;;;;;;;5023119;28;20306;-33
2023/04/01 02:56:46;;;;;;;0.50;0.20;;;;;;;;;;5014892;28;20214;-31
2023/04/01 02:59:13;;;;;;;0.50;0.20;;;;;;;;;;5018905;28;20206;-35
2023/04/01 03:01:42;;;;;;;0.10;0.10;;;;;;;;;;5010556;28;20689;-35
2023/04/01 03:04:09;;;;;;;0.17;0.17;;;;;;;;;;5018994;28;20318;-35
2023/04/01 03:06:36;;;;;;;0.27;0.10;;;;;;;;;;5011243;28;20203;-33
2023/04/01 03:09:03;;;;;;;0.17;0.17;;;;;;;;;;5008936;28;20214;-35
2023/04/01 03:11:30;;;;;;;0.30;0.20;;;;;;;;;;5011122;28;20234;-34
2023/04/01 03:13:57;;;;;;;0.40;0.30;;;;;;;;;;5020893;28;20222;-35
2023/04/01 03:16:25;;;;;;;0.30;0.23;;;;;;;;;;5010751;28;20673;-34
2023/04/01 03:18:55;;;;;;;0.27;0.20;;;;;;;;;;5018500;28;20206;-36
2023/04/01 03:21:23;;;;;;;0.20;0.10;;;;;;;;;;5027343;28;20293;-33
2023/04/01 03:23:50;;;;;;;0.37;0.17;;;;;;;;;;5029486;28;20226;-37
2023/04/01 03:26:17;;;;;;;0.20;0.20;;;;;;;;;;5022878;28;20236;-33
2023/04/01 03:28:44;;;;;;;0.10;0.10;;;;;;;;;;5017692;28;20214;-37
2023/04/01 03:31:12;;;;;;;0.83;0.20;;;;;;;;;;5014837;28;20203;-33
2023/04/01 03:33:39;;;;;;;1.33;0.30;;;;;;;;;;5008916;28;20317;-34
2023/04/01 03:36:08;;;;;;;0.10;0.10;;;;;;;;;;5021436;28;20198;-35
2023/04/01 03:38:36;;;;;;;0.10;0.10;;;;;;;;;;5027959;28;20236;-34
2023/04/01 03:41:03;;;;;;;0.30;0.30;;;;;;;;;;5016264;28;20673;-33
2023/04/01 03:43:30;;;;;;;0.73;0.30;;;;;;;;;;5009576;28;20224;-35
2023/04/01 03:45:57;;;;;;;0.20;0.20;;;;;;;;;;5017465;28;20207;-32
2023/04/01 03:48:25;;;;;;;3.00;0.23;;;;;;;;;;5012945;28;20207;-35
2023/04/01 03:50:52;;;;;;;0.50;0.50;;;;;;;;;;5019514;28;20298;-32
2023/04/01 03:53:20;;;;;;;1.10;0.20;;;;;;;;;;5010316;28;20231;-32
2023/04/01 03:55:48;;;;;;;1.13;0.27;;;;;;;;;;5026521;28;20250;-33
2023/04/01 03:58:15;;;;;;;0.97;0.10;;;;;;;;;;5019779;28;20689;-34
2023/04/01 04:00:42;;;;;;;0.00;0.00;;;;;;;;;;5022511;28;20684;-34
2023/04/01 04:03:09;;;;;;;0.10;0.10;;;;;;;;;;5016037;28;20223;-35
2023/04/01 04:05:37;;;;;;;0.50;0.20;;;;;;;;;;5006694;28;20203;-34
2023/04/01 04:08:04;;;;;;;0.10;0.10;;;;;;;;;;5031318;28;20586;-35
2023/04/01 04:10:32;;;;;;;0.20;0.20;;;;;;;;;;5011482;28;20724;-32
2023/04/01 04:12:59;;;;;;;0.03;0.03;;;;;;;;;;5020331;28;20229;-34
2023/04/01 04:15:27;;;;;;;0.10;0.10;;;;;;;;;;5012833;28;20230;-33
2023/04/01 04:17:54;;;;;;;0.10;0.10;;;;;;;;;;5020573;28;20672;-36
2023/04/01 04:20:21;;;;;;;0.43;0.20;;;;;;;;;;5012097;28;20214;-32
2023/04/01 04:22:48;;;;;;;0.20;0.20;;;;;;;;;;5007899;28;20231;-35
2023/04/01 04:25:15;;;;;;;0.37;0.20;;;;;;;;;;5009503;28;20669;-36
2023/04/01 04:27:44;;;;;;;0.97;0.20;;;;;;;;;;5023966;28;20667;-35
2023/04/01 04:30:11;;;;;;;0.20;0.20;;;;;;;;;;5016436;28;20210;-33
2023/04/01 04:32:38;;;;;;;0.13;0.13;;;;;;;;;;5024933;28;20232;-35
2023/04/01 04:35:06;;;;;;;0.10;0.10;;;;;;;;;;5021921;28;20223;-36
2023/04/01 04:37:34;;;;;;;0.57;0.30;;;;;;;;;;5007918;28;20230;-36
2023/04/01 04:40:01;;;;;;;0.20;0.20;;;;;;;;;;5015419;28;20242;-32
2023/04/01 04:42:28;;;;;;;1.40;0.30;;;;;;;;;;5017606;28;20203;-35
2023/04/01 04:44:57;;;;;;;0.43;0.10;;;;;;;;;;5023152;28;20213;-35
2023/04/01 04:48:16;;;;;;;0.50;0.40;;;;;;;;;;5305972;23;20239;-35
2023/04/01 04:50:59;;;;;;;0.40;0.30;;;;;;;;;;5033056;28;20288;-35
2023/04/01 04:59:46;;;;;;;2.43;0.60;;;;;;;;;;4955363;28;20205;-32
2023/04/01 05:05:35;;;;;;;0.47;0.20;;;;;;;;;;4982226;28;20208;-32
2023/04/01 05:08:39;;;;;;;0.47;0.40;;;;;;;;;;4997836;28;20218;-33
2023/04/01 05:14:37;;;;;;;0.40;0.40;;;;;;;;;;5013281;28;20230;-32
2023/04/01 05:23:51;;;;;;;0.40;0.30;;;;;;;;;;4970072;28;20228;-34
2023/04/01 05:39:19;;;;;;;0.90;0.40;;;;;;;;;;4911602;29;20206;-36
2023/04/01 06:04:10;;;;;;;1.03;0.30;;;;;;;;;;4795299;29;20338;-34
2023/04/01 06:10:03;;;;;;;;;;;;;;;;;;;;;
2023/04/01 06:12:54;;;;;;;0.40;0.40;;;;;;;;;;4931380;29;20353;-39
2023/04/01 06:19:11;;;;;;;0.77;0.30;;;;;;;;;;4903424;29;20341;-33
2023/04/01 06:28:14;;;;;;;0.67;0.40;;;;;;;;;;4884710;29;20292;-32
2023/04/01 06:40:15;;;;;;;0.33;0.20;;;;;;;;;;4814388;29;20252;-33
2023/04/01 06:43:13;;;;;;;0.50;0.50;;;;;;;;;;4859880;29;20224;-32
2023/04/01 06:51:56;;;;;;;0.67;0.37;;;;;;;;;;4917228;29;20225;-38
2023/04/01 07:05:27;;;;;;;0.30;0.30;;;;;;;;;;4908151;29;20252;-29
2023/04/01 07:13:56;;;;;;;0.37;0.30;;;;;;;;;;4969344;28;20235;-28
2023/04/01 07:20:40;;;;;;;0.20;0.20;;;;;;;;;;5005492;28;20211;-26
2023/04/01 07:26:32;;;;;;;0.30;0.30;;;;;;;;;;5004140;28;20202;-26
2023/04/01 07:29:27;;;;;;;0.50;0.20;;;;;;;;;;5008094;28;20208;-28
2023/04/01 07:38:28;;;;;;;0.40;0.30;;;;;;;;;;4916866;29;20300;-26
2023/04/01 07:41:42;;;;;;;;;;;;;;;;;;;;;
2023/04/01 07:47:58;;;;;;;0.40;0.40;;;;;;;;;;4846026;29;20380;-27
2023/04/01 07:53:57;;;;;;;0.50;0.23;;;;;;;;;;4911623;29;20297;-27
2023/04/01 08:06:06;;;;;;;0.47;0.47;;;;;;;;;;4948739;29;20209;-25
2023/04/01 08:08:44;;;;;;;1.13;0.53;;;;;;;;;;4994213;28;20208;-28
2023/04/01 08:11:44;;;;;;;0.57;0.40;;;;;;;;;;5003842;28;20216;-29
2023/04/01 08:18:06;;;;;;;;;;;;;;;;;;;;;
2023/04/01 08:38:58;;;;;;;0.77;0.20;;;;;;;;;;4965492;28;20208;-25
2023/04/01 08:51:41;;;;;;;;;;;;;;;;;;;;;
2023/04/01 08:54:45;;;;;;;0.27;0.27;;;;;;;;;;5092867;28;20599;-32
2023/04/01 09:03:57;;;;;;;;;;;;;;;;;;;;;
2023/04/01 09:13:10;;;;;;;2.33;0.47;;;;;;;;;;4971174;28;20411;-33
2023/04/01 09:31:35;;;;;;;0.40;0.40;;;;;;;;;;5066468;28;20197;-38
2023/04/01 09:34:22;;;;;;;0.50;0.50;;;;;;;;;;5080282;28;20220;-38
2023/04/01 09:40:04;;;;;;;4.37;0.63;;;;;;;;;;5234414;22;20237;-33
2023/04/01 09:43:01;;;;;;;0.50;0.30;;;;;;;;;;5094549;22;20205;-36
2023/04/01 09:45:57;;;;;;;2.27;0.43;;;;;;;;;;5075729;28;20232;-38
2023/04/01 09:48:46;;;;;;;0.30;0.30;;;;;;;;;;5031826;28;20203;-33
2023/04/01 09:51:32;;;;;;;1.10;0.40;;;;;;;;;;5087529;28;20196;-37
2023/04/01 09:54:32;;;;;;;;;;;;;;;;;;;;;
2023/04/01 09:57:38;;;;;;;;;;;;;;;;;;;;;
2023/04/01 10:00:32;;;;;;;0.50;0.50;;;;;;;;;;5049256;28;20200;-36
2023/04/01 10:03:33;;;;;;;0.50;0.30;;;;;;;;;;5067805;28;20231;-32
2023/04/01 10:06:25;;;;;;;2.17;0.43;;;;;;;;;;5074054;28;20221;-33
2023/04/01 10:09:34;;;;;;;1.33;0.83;;;;;;;;;;5064303;28;20202;-35
2023/04/01 10:12:24;;;;;;;1.67;0.30;;;;;;;;;;5011019;28;20523;-35
2023/04/01 10:18:22;;;;;;;0.40;0.30;;;;;;;;;;4982540;28;20296;-37
2023/04/01 10:21:20;;;;;;;0.30;0.20;;;;;;;;;;5055249;28;20332;-37
2023/04/01 10:24:15;;;;;;;0.20;0.20;;;;;;;;;;4993290;28;20278;-39
2023/04/01 10:30:22;;;;;;;0.20;0.20;;;;;;;;;;4978493;28;20285;-32
2023/04/01 10:33:24;;;;;;;0.60;0.30;;;;;;;;;;5010500;28;20254;-36
2023/04/01 10:40:15;;;;;;;0.10;0.10;;;;;;;;;;5144277;27;20260;-36
2023/04/01 10:52:23;;;;;;;0.33;0.20;;;;;;;;;;5007443;28;20320;-36
2023/04/01 10:58:16;;;;;;;0.50;0.30;;;;;;;;;;4974288;28;20236;-35
2023/04/01 11:13:50;;;;;;;0.33;0.20;;;;;;;;;;4930586;29;20241;-40
2023/04/01 11:32:22;;;;;;;0.30;0.30;;;;;;;;;;5058344;28;20201;-37
2023/04/01 11:38:35;;;;;;;0.20;0.20;;;;;;;;;;5060304;28;20295;-32
2023/04/01 11:41:23;;;;;;;0.40;0.40;;;;;;;;;;5060340;28;20205;-34
2023/04/01 11:47:13;;;;;;;1.50;0.30;;;;;;;;;;5062160;28;20201;-37
2023/04/01 11:53:27;;;;;;;3.63;0.37;;;;;;;;;;4990492;28;20225;-36
2023/04/01 11:59:43;;;;;;;0.67;0.40;;;;;;;;;;4986832;28;20220;-36
2023/04/01 12:02:30;;;;;;;0.23;0.23;;;;;;;;;;5044506;28;20210;-39
2023/04/01 12:05:19;;;;;;;0.33;0.33;;;;;;;;;;5035850;28;20207;-37
2023/04/01 12:08:09;;;;;;;0.30;0.30;;;;;;;;;;5040390;28;20190;-39
2023/04/01 12:11:02;;;;;;;0.33;0.33;;;;;;;;;;5054394;28;20206;-32
2023/04/01 12:13:55;;;;;;;0.73;0.60;;;;;;;;;;5055071;28;20214;-38
2023/04/01 12:16:51;;;;;;;2.90;0.87;;;;;;;;;;5042812;28;20211;-32
2023/04/01 12:22:45;;;;;;;0.30;0.30;;;;;;;;;;5220241;22;20229;-33
2023/04/01 12:25:21;;;;;;;0.37;0.37;;;;;;;;;;5089388;28;20199;-31
2023/04/01 12:27:54;;;;;;;0.20;0.20;;;;;;;;;;5093816;28;20192;-30
2023/04/01 12:30:36;;;;;;;0.30;0.30;;;;;;;;;;5086076;28;20212;-33
2023/04/01 12:33:15;;;;;;;0.40;0.40;;;;;;;;;;5080401;28;20216;-31
2023/04/01 12:35:48;;;;;;;0.40;0.40;;;;;;;;;;5093431;28;20633;-33
2023/04/01 12:38:20;;;;;;;0.97;0.50;;;;;;;;;;5076691;28;20220;-32
2023/04/01 12:40:58;;;;;;;0.30;0.30;;;;;;;;;;5076613;28;20699;-30
2023/04/01 12:43:35;;;;;;;0.30;0.30;;;;;;;;;;5091831;28;20318;-33
2023/04/01 12:46:07;;;;;;;0.30;0.30;;;;;;;;;;5087653;28;20711;-31
2023/04/01 12:48:42;;;;;;;1.07;0.33;;;;;;;;;;5085827;28;20640;-31
2023/04/01 12:51:27;;;;;;;0.37;0.23;;;;;;;;;;5093080;28;20201;-32
2023/04/01 12:54:06;;;;;;;0.23;0.20;;;;;;;;;;5089976;28;20419;-31
2023/04/01 12:56:38;;;;;;;0.20;0.20;;;;;;;;;;5074978;28;20205;-33
2023/04/01 12:59:23;;;;;;;0.30;0.30;;;;;;;;;;5084946;28;20212;-34
2023/04/01 13:02:05;;;;;;;0.30;0.30;;;;;;;;;;5065018;28;20219;-32
2023/04/01 13:05:03;;;;;;;0.40;0.40;;;;;;;;;;5077783;28;20225;-32
2023/04/01 13:07:36;;;;;;;0.20;0.20;;;;;;;;;;5090811;28;20208;-36
2023/04/01 13:10:06;;;;;;;0.20;0.20;;;;;;;;;;5088578;28;20201;-31
2023/04/01 13:12:41;;;;;;;0.10;0.10;;;;;;;;;;5091513;28;20228;-32
2023/04/01 13:15:24;;;;;;;0.73;0.30;;;;;;;;;;5079646;28;20212;-35
2023/04/01 13:18:00;;;;;;;0.50;0.50;;;;;;;;;;5077765;28;20227;-33
2023/04/01 13:20:36;;;;;;;0.73;0.30;;;;;;;;;;5093383;28;20205;-34
2023/04/01 13:23:10;;;;;;;0.20;0.20;;;;;;;;;;5093673;28;20321;-34
2023/04/01 13:25:40;;;;;;;0.57;0.20;;;;;;;;;;5085110;28;20200;-32
2023/04/01 13:28:11;;;;;;;0.10;0.10;;;;;;;;;;5093045;28;20201;-33
2023/04/01 13:30:40;;;;;;;0.07;0.07;;;;;;;;;;5087143;28;20287;-34
2023/04/01 13:33:20;;;;;;;0.20;0.10;;;;;;;;;;5086081;28;20236;-33
2023/04/01 13:35:51;;;;;;;1.47;0.10;;;;;;;;;;5090487;28;20205;-35
2023/04/01 13:38:37;;;;;;;0.00;0.00;;;;;;;;;;5085560;28;20216;-34
2023/04/01 13:41:07;;;;;;;0.40;0.20;;;;;;;;;;5088678;28;20207;-33
2023/04/01 13:43:37;;;;;;;0.13;0.10;;;;;;;;;;5092613;28;20220;-33
2023/04/01 13:46:10;;;;;;;0.40;0.40;;;;;;;;;;5088262;28;20211;-32
2023/04/01 13:48:46;;;;;;;1.10;0.20;;;;;;;;;;5092855;28;20552;-32
2023/04/01 13:51:34;;;;;;;0.20;0.20;;;;;;;;;;5093095;28;20189;-37
2023/04/01 13:54:15;;;;;;;0.17;0.10;;;;;;;;;;5087930;28;20964;-34
2023/04/01 13:56:45;;;;;;;0.17;0.13;;;;;;;;;;5076503;28;20820;-32
2023/04/01 13:59:27;;;;;;;0.20;0.20;;;;;;;;;;5089292;28;20331;-32
2023/04/01 14:01:58;;;;;;;0.10;0.10;;;;;;;;;;5087244;28;20204;-33
2023/04/01 14:04:40;;;;;;;0.30;0.30;;;;;;;;;;5092023;28;20582;-33
2023/04/01 14:07:14;;;;;;;0.20;0.20;;;;;;;;;;5092959;28;20244;-31
2023/04/01 14:09:52;;;;;;;0.50;0.13;;;;;;;;;;5082691;28;20211;-32
2023/04/01 14:12:27;;;;;;;0.30;0.30;;;;;;;;;;5091598;28;20655;-31
2023/04/01 14:15:01;;;;;;;0.20;0.20;;;;;;;;;;5089339;28;20232;-35
2023/04/01 14:17:32;;;;;;;0.10;0.10;;;;;;;;;;5075415;28;20243;-33
2023/04/01 14:20:30;;;;;;;0.53;0.23;;;;;;;;;;5086659;28;20221;-33
2023/04/01 14:23:24;;;;;;;1.37;0.20;;;;;;;;;;5024818;28;20233;-33
2023/04/01 14:25:58;;;;;;;0.67;0.20;;;;;;;;;;5040947;28;20283;-35
2023/04/01 14:28:31;;;;;;;1.23;0.20;;;;;;;;;;5082701;28;20203;-35
2023/04/01 14:31:14;;;;;;;0.23;0.20;;;;;;;;;;5080561;28;20199;-34
2023/04/01 14:33:44;;;;;;;0.20;0.20;;;;;;;;;;5085079;28;20235;-32
2023/04/01 14:36:30;;;;;;;0.13;0.13;;;;;;;;;;5087175;28;20207;-35
2023/04/01 14:39:02;;;;;;;2.87;0.37;;;;;;;;;;5075018;28;20224;-34
2023/04/01 14:41:36;;;;;;;0.23;0.23;;;;;;;;;;5085259;28;20232;-34
2023/04/01 14:44:13;;;;;;;0.40;0.27;;;;;;;;;;5085014;28;20284;-35
2023/04/01 14:47:01;;;;;;;0.30;0.20;;;;;;;;;;5081425;28;20211;-32
2023/04/01 14:49:34;;;;;;;1.07;0.13;;;;;;;;;;5052291;28;20212;-35
2023/04/01 14:52:07;;;;;;;0.30;0.20;;;;;;;;;;5086799;28;20215;-33
2023/04/01 14:54:36;;;;;;;0.93;0.27;;;;;;;;;;5079255;28;20229;-35
2023/04/01 14:57:11;;;;;;;0.30;0.30;;;;;;;;;;5078798;28;20277;-33
2023/04/01 14:59:41;;;;;;;24.13;14.40;;;;;;;;;;5083309;28;20204;-31
2023/04/01 15:02:16;;;;;;;0.23;0.23;;;;;;;;;;5074194;28;20201;-36
2023/04/01 15:04:48;;;;;;;0.20;0.20;;;;;;;;;;5081700;28;20204;-33
2023/04/01 15:07:42;;;;;;;0.17;0.17;;;;;;;;;;5083122;28;20300;-35
2023/04/01 15:10:19;;;;;;;0.10;0.10;;;;;;;;;;5067752;28;20299;-33
2023/04/01 15:12:54;;;;;;;0.23;0.23;;;;;;;;;;5086179;28;20220;-37
2023/04/01 15:15:28;;;;;;;0.37;0.37;;;;;;;;;;5079021;28;20216;-33
2023/04/01 15:18:00;;;;;;;0.37;0.30;;;;;;;;;;5078188;28;20867;-32
2023/04/01 15:20:43;;;;;;;0.23;0.23;;;;;;;;;;5085705;28;20212;-34
2023/04/01 15:23:21;;;;;;;0.20;0.20;;;;;;;;;;5085957;28;20228;-32
2023/04/01 15:25:53;;;;;;;0.30;0.30;;;;;;;;;;5075605;28;20197;-36
2023/04/01 15:28:30;;;;;;;0.30;0.30;;;;;;;;;;5079724;28;20220;-32
2023/04/01 15:31:04;;;;;;;2.07;0.37;;;;;;;;;;5073137;28;20200;-32
2023/04/01 15:33:40;;;;;;;0.47;0.30;;;;;;;;;;5078870;28;20432;-35
2023/04/01 15:36:13;;;;;;;0.20;0.20;;;;;;;;;;5086305;28;20478;-36
2023/04/01 15:38:46;;;;;;;0.93;0.30;;;;;;;;;;5083323;28;20217;-33
2023/04/01 15:41:16;;;;;;;0.00;0.00;;;;;;;;;;5083701;28;20205;-34
2023/04/01 15:43:48;;;;;;;0.30;0.30;;;;;;;;;;5089000;28;20225;-34
2023/04/01 15:46:30;;;;;;;0.20;0.20;;;;;;;;;;5083530;28;20215;-33
2023/04/01 15:49:03;;;;;;;0.30;0.30;;;;;;;;;;5076397;28;20217;-37
2023/04/01 15:51:37;;;;;;;0.20;0.20;;;;;;;;;;5085317;28;20201;-35
2023/04/01 15:54:31;;;;;;;0.70;0.30;;;;;;;;;;5084484;28;20311;-33
2023/04/01 15:57:10;;;;;;;0.20;0.20;;;;;;;;;;5072154;28;20211;-34
2023/04/01 15:59:52;;;;;;;0.30;0.30;;;;;;;;;;5086459;28;20231;-35
2023/04/01 16:02:22;;;;;;;0.20;0.20;;;;;;;;;;5083510;28;20204;-32
2023/04/01 16:04:51;;;;;;;0.77;0.47;;;;;;;;;;5081925;28;20212;-33
2023/04/01 16:07:24;;;;;;;0.20;0.20;;;;;;;;;;5089422;28;20295;-32
2023/04/01 16:10:00;;;;;;;0.87;0.50;;;;;;;;;;5084578;28;20832;-36
2023/04/01 16:12:36;;;;;;;0.40;0.40;;;;;;;;;;5081037;28;20206;-34
2023/04/01 16:15:11;;;;;;;0.70;0.30;;;;;;;;;;5079674;28;20367;-35
2023/04/01 16:17:50;;;;;;;0.40;0.40;;;;;;;;;;5076487;28;20239;-35
2023/04/01 16:20:20;;;;;;;0.40;0.40;;;;;;;;;;5089520;28;20212;-35
2023/04/01 16:22:51;;;;;;;0.73;0.50;;;;;;;;;;5090799;28;20221;-33
2023/04/01 16:25:23;;;;;;;0.53;0.43;;;;;;;;;;5083939;28;20201;-33
2023/04/01 16:27:55;;;;;;;1.17;0.60;;;;;;;;;;5091476;28;20279;-30
2023/04/01 16:30:34;;;;;;;0.33;0.33;;;;;;;;;;5085971;28;20689;-34
2023/04/01 16:33:04;;;;;;;0.50;0.50;;;;;;;;;;5078879;28;20232;-31
2023/04/01 16:35:37;;;;;;;0.20;0.20;;;;;;;;;;5092633;28;20211;-34
2023/04/01 16:38:07;;;;;;;0.30;0.30;;;;;;;;;;5085201;28;20312;-34
2023/04/01 16:40:39;;;;;;;0.40;0.40;;;;;;;;;;5078926;28;20229;-35
2023/04/01 16:43:08;;;;;;;0.80;0.60;;;;;;;;;;5084080;28;20224;-33
2023/04/01 16:45:40;;;;;;;0.67;0.43;;;;;;;;;;5085562;28;20596;-33
2023/04/01 16:48:11;;;;;;;0.53;0.40;;;;;;;;;;5075726;28;20201;-33
2023/04/01 16:50:46;;;;;;;1.43;0.40;;;;;;;;;;5092419;28;20189;-33
2023/04/01 16:53:17;;;;;;;0.50;0.50;;;;;;;;;;5093139;28;20220;-32
2023/04/01 16:55:47;;;;;;;1.00;0.53;;;;;;;;;;5084850;28;20204;-32
2023/04/01 16:58:19;;;;;;;0.70;0.57;;;;;;;;;;5093296;28;20818;-30
2023/04/01 17:00:50;;;;;;;0.50;0.50;;;;;;;;;;5086315;28;20304;-30
2023/04/01 17:03:19;;;;;;;0.50;0.40;;;;;;;;;;5091930;28;20255;-31
2023/04/01 17:05:51;;;;;;;0.60;0.50;;;;;;;;;;5087331;28;20236;-32
2023/04/01 17:08:24;;;;;;;0.50;0.40;;;;;;;;;;5081770;28;20208;-31
2023/04/01 17:10:57;;;;;;;0.60;0.50;;;;;;;;;;5089008;28;20205;-30
2023/04/01 17:13:33;;;;;;;0.83;0.57;;;;;;;;;;5090372;28;20243;-32
2023/04/01 17:16:07;;;;;;;1.23;0.60;;;;;;;;;;5075852;28;20216;-32
2023/04/01 17:18:38;;;;;;;0.50;0.50;;;;;;;;;;5089407;28;20232;-32
2023/04/01 17:21:08;;;;;;;0.53;0.50;;;;;;;;;;5085372;28;20295;-34
2023/04/01 17:23:38;;;;;;;1.43;0.50;;;;;;;;;;5088267;28;20236;-35
2023/04/01 17:26:16;;;;;;;0.73;0.47;;;;;;;;;;5092857;28;20193;-35
2023/04/01 17:28:49;;;;;;;0.40;0.40;;;;;;;;;;5092526;28;20207;-31
2023/04/01 17:31:22;;;;;;;2.27;0.70;;;;;;;;;;5078152;28;20304;-34
2023/04/01 17:34:18;;;;;;;1.00;0.63;;;;;;;;;;5092427;28;20216;-32
2023/04/01 17:36:51;;;;;;;1.53;0.70;;;;;;;;;;5091439;28;20259;-31
2023/04/01 17:39:24;;;;;;;0.50;0.50;;;;;;;;;;5087897;28;20241;-32
2023/04/01 17:41:54;;;;;;;2.60;0.60;;;;;;;;;;5084841;28;20234;-35
2023/04/01 17:44:32;;;;;;;0.80;0.80;;;;;;;;;;5092799;28;20311;-32
2023/04/01 17:47:05;;;;;;;2.73;0.60;;;;;;;;;;5074676;28;20198;-36
2023/04/01 17:49:35;;;;;;;1.77;1.40;;;;;;;;;;5090442;28;20211;-31
2023/04/01 17:52:05;;;;;;;1.83;0.90;;;;;;;;;;5093146;28;20208;-32
2023/04/01 17:54:37;;;;;;;3.73;2.23;;;;;;;;;;5090336;28;20299;-33
2023/04/01 17:57:11;;;;;;;6.10;3.40;;;;;;;;;;5086038;28;20597;-33
2023/04/01 17:59:42;;;;;;;10.27;5.23;;;;;;;;;;5087791;28;20208;-33
2023/04/01 18:02:21;;;;;;;2.47;1.53;;;;;;;;;;5087983;28;20228;-34
2023/04/01 18:04:56;;;;;;;16.00;7.63;;;;;;;;;;5090280;28;20216;-35
2023/04/01 18:07:40;;;;;;;2.70;1.40;;;;;;;;;;5088556;28;20606;-34
2023/04/01 18:10:28;;;;;;;78.13;31.13;;;;;;;;;;5086027;28;20200;-33
2023/04/01 18:13:08;;;;;;;98.50;37.37;;;;;;;;;;5073291;28;20225;-34
2023/04/01 18:15:40;;;;;;;32.67;15.80;;;;;;;;;;5073375;28;20248;-32
2023/04/01 18:18:21;;;;;;;5.60;4.90;;;;;;;;;;5092353;28;20200;-32
2023/04/01 18:20:56;;;;;;;1.63;1.00;;;;;;;;;;5090753;28;20319;-34
2023/04/01 18:31:30;;;;;;;0.87;0.87;;;;;;;;;;5024396;28;20223;-25
2023/04/01 18:47:20;;;;;;;0.80;0.80;;;;;;;;;;4988288;28;20296;-26
2023/04/01 18:50:18;;;;;;;0.93;0.70;;;;;;;;;;4974760;28;20208;-25
2023/04/01 19:16:15;;;;;;;0.60;0.60;;;;;;;;;;5047921;28;20218;-30
2023/04/01 19:19:07;;;;;;;0.63;0.63;;;;;;;;;;5053524;28;20241;-31
2023/04/01 19:31:50;;;;;;;;;;;;;;;;;;;;;
2023/04/01 19:50:27;;;;;;;0.33;0.33;;;;;;;;;;5053176;28;20255;-28
2023/04/01 19:53:54;;;;;;;0.43;0.43;;;;;;;;;;4960254;28;20320;-28
2023/04/01 20:03:03;;;;;;;1.17;0.60;;;;;;;;;;5050823;22;20210;-28
2023/04/01 20:08:35;;;;;;;;;;;;;;;;;;;;;
2023/04/01 20:21:18;;;;;;;0.57;0.57;;;;;;;;;;4874721;29;20236;-30
2023/04/01 20:24:26;;;;;;;0.23;0.23;;;;;;;;;;4933562;29;20233;-29
2023/04/01 20:43:00;;;;;;;0.90;0.80;;;;;;;;;;4527104;22;15412997;31
2023/04/01 20:46:13;;;;;;;;;;;;;;;;;;;;;
2023/04/01 20:55:13;;;;;;;0.60;0.60;;;;;;;;;;4910539;29;20209;-36
2023/04/01 20:57:56;;;;;;;0.77;0.70;;;;;;;;;;4836596;29;20221;-38
2023/04/01 21:07:05;;;;;;;0.73;0.70;;;;;;;;;;4871298;29;20295;-37
2023/04/01 21:25:34;;;;;;;1.10;1.00;;;;;;;;;;4703705;30;20222;-38
2023/04/01 21:28:30;;;;;;;1.43;1.10;;;;;;;;;;4736420;30;20700;-33
2023/04/01 21:31:43;;;;;;;;;;;;;;;;;;;;;
2023/04/01 21:34:39;;;;;;;;;;;;;;;;;;;;;
2023/04/01 21:40:48;;;;;;;0.90;0.90;;;;;;;;;;4910040;29;20202;-38
2023/04/01 21:43:45;;;;;;;16.47;8.33;;;;;;;;;;4906503;29;20262;-35
2023/04/01 21:49:07;;;;;;;4.40;2.73;;;;;;;;;;5135538;23;20324;-37
2023/04/01 21:58:16;;;;;;;2.13;1.93;;;;;;;;;;5013407;28;20195;-35
2023/04/01 22:01:01;;;;;;;3.40;2.10;;;;;;;;;;5009724;28;20354;-35
2023/04/01 22:04:17;;;;;;;1.70;1.23;;;;;;;;;;5009727;28;20239;-33
2023/04/01 22:25:03;;;;;;;2.03;1.13;;;;;;;;;;4903869;29;20233;-29
2023/04/01 22:31:12;;;;;;;0.80;0.80;;;;;;;;;;4895659;29;20215;-30
2023/04/01 22:36:52;;;;;;;1.40;1.00;;;;;;;;;;4942030;28;20215;-28
2023/04/01 22:51:16;;;;;;;1.10;1.00;;;;;;;;;;4927107;29;20218;-29
2023/04/01 23:03:40;;;;;;;0.70;0.70;;;;;;;;;;4841389;29;20239;-28
2023/04/01 23:10:00;;;;;;;0.60;0.60;;;;;;;;;;4796173;29;20325;-28
2023/04/01 23:16:13;;;;;;;0.90;0.90;;;;;;;;;;4853012;29;20219;-26
2023/04/01 23:31:21;;;;;;;0.70;0.70;;;;;;;;;;4987069;28;20218;-36
